sensor_id;sensor_type;location;lat;lon;timestamp;pressure;altitude;pressure_sealevel;temperature;humidity
55317;BME280;41178;48.956;8.130;2022-09-12T00:00:31;99822.91;;;23.93;46.91
55317;BME280;41178;48.956;8.130;2022-09-12T00:02:32;99852.03;;;22.76;48.37
55317;BME280;41178;48.956;8.130;2022-09-12T00:04:34;99820.94;;;22.78;48.87
55317;BME280;41178;48.956;8.130;2022-09-12T00:06:36;99819.28;;;22.77;48.78
55317;BME280;41178;48.956;8.130;2022-09-12T00:08:38;99833.97;;;21.87;50.30
55317;BME280;41178;48.956;8.130;2022-09-12T00:10:41;99822.03;;;22.42;48.96
55317;BME280;41178;48.956;8.130;2022-09-12T00:12:43;99798.47;;;22.66;48.54
55317;BME280;41178;48.956;8.130;2022-09-12T00:14:45;99823.28;;;22.04;49.23
55317;BME280;41178;48.956;8.130;2022-09-12T00:16:46;99816.13;;;22.57;48.68
55317;BME280;41178;48.956;8.130;2022-09-12T00:18:48;99820.63;;;22.39;48.59
55317;BME280;41178;48.956;8.130;2022-09-12T00:20:50;99795.50;;;22.79;48.21
55317;BME280;41178;48.956;8.130;2022-09-12T00:22:51;99804.84;;;23.12;47.53
55317;BME280;41178;48.956;8.130;2022-09-12T00:24:53;99796.38;;;23.09;48.03
55317;BME280;41178;48.956;8.130;2022-09-12T00:26:54;99806.31;;;22.91;48.08
55317;BME280;41178;48.956;8.130;2022-09-12T00:28:56;99815.22;;;22.51;49.01
55317;BME280;41178;48.956;8.130;2022-09-12T00:30:58;99788.19;;;23.20;47.71
55317;BME280;41178;48.956;8.130;2022-09-12T00:33:00;99773.06;;;23.25;47.67
55317;BME280;41178;48.956;8.130;2022-09-12T00:35:01;99817.06;;;22.74;48.01
55317;BME280;41178;48.956;8.130;2022-09-12T00:37:04;99792.94;;;23.42;46.95
55317;BME280;41178;48.956;8.130;2022-09-12T00:39:06;99812.63;;;23.20;47.47
55317;BME280;41178;48.956;8.130;2022-09-12T00:41:25;99808.88;;;23.10;47.87
55317;BME280;41178;48.956;8.130;2022-09-12T00:43:39;99783.72;;;23.89;46.35
55317;BME280;41178;48.956;8.130;2022-09-12T00:45:41;99804.13;;;23.74;46.50
55317;BME280;41178;48.956;8.130;2022-09-12T00:47:43;99821.31;;;23.51;46.71
55317;BME280;41178;48.956;8.130;2022-09-12T00:49:52;99830.06;;;23.13;47.26
55317;BME280;41178;48.956;8.130;2022-09-12T00:54:39;99804.16;;;24.25;45.34
55317;BME280;41178;48.956;8.130;2022-09-12T00:56:45;99859.47;;;23.45;46.37
55317;BME280;41178;48.956;8.130;2022-09-12T00:59:02;99852.72;;;23.18;47.02
55317;BME280;41178;48.956;8.130;2022-09-12T01:01:05;99848.06;;;22.55;48.24
55317;BME280;41178;48.956;8.130;2022-09-12T01:03:11;99782.97;;;24.10;45.95
55317;BME280;41178;48.956;8.130;2022-09-12T01:05:15;99796.16;;;24.36;45.06
55317;BME280;41178;48.956;8.130;2022-09-12T01:07:18;99805.13;;;24.53;44.46
55317;BME280;41178;48.956;8.130;2022-09-12T01:09:22;99831.94;;;24.16;45.30
55317;BME280;41178;48.956;8.130;2022-09-12T01:11:23;99826.47;;;24.27;45.22
55317;BME280;41178;48.956;8.130;2022-09-12T01:13:25;99827.59;;;24.15;45.13
55317;BME280;41178;48.956;8.130;2022-09-12T01:15:30;99833.34;;;23.84;46.47
55317;BME280;41178;48.956;8.130;2022-09-12T01:18:18;99834.53;;;23.60;46.65
55317;BME280;41178;48.956;8.130;2022-09-12T01:25:30;99824.56;;;22.84;47.66
55317;BME280;41178;48.956;8.130;2022-09-12T01:34:57;99789.34;;;23.25;47.00
55317;BME280;41178;48.956;8.130;2022-09-12T01:37:16;99824.97;;;21.75;49.57
55317;BME280;41178;48.956;8.130;2022-09-12T01:42:25;99776.88;;;22.83;47.65
55317;BME280;41178;48.956;8.130;2022-09-12T01:49:11;99767.50;;;22.91;47.45
55317;BME280;41178;48.956;8.130;2022-09-12T01:51:27;99806.22;;;22.27;48.41
55317;BME280;41178;48.956;8.130;2022-09-12T01:53:41;99762.69;;;22.93;47.21
55317;BME280;41178;48.956;8.130;2022-09-12T01:55:47;99805.88;;;22.35;47.93
55317;BME280;41178;48.956;8.130;2022-09-12T02:00:15;99792.84;;;22.32;48.07
55317;BME280;41178;48.956;8.130;2022-09-12T02:02:22;99817.09;;;21.43;49.60
55317;BME280;41178;48.956;8.130;2022-09-12T02:04:49;99757.97;;;22.48;47.68
55317;BME280;41178;48.956;8.130;2022-09-12T02:08:58;99773.38;;;22.12;48.47
55317;BME280;41178;48.956;8.130;2022-09-12T02:11:08;99780.53;;;21.82;49.02
55317;BME280;41178;48.956;8.130;2022-09-12T02:13:21;99820.34;;;19.83;52.45
55317;BME280;41178;48.956;8.130;2022-09-12T02:15:35;99787.38;;;20.06;52.08
55317;BME280;41178;48.956;8.130;2022-09-12T02:17:41;99766.16;;;19.85;53.04
55317;BME280;41178;48.956;8.130;2022-09-12T02:19:54;99722.63;;;20.80;51.50
55317;BME280;41178;48.956;8.130;2022-09-12T02:21:59;99721.69;;;21.05;50.61
55317;BME280;41178;48.956;8.130;2022-09-12T02:24:04;99742.53;;;21.47;49.75
55317;BME280;41178;48.956;8.130;2022-09-12T02:26:19;99732.63;;;21.41;49.83
55317;BME280;41178;48.956;8.130;2022-09-12T02:28:32;99742.28;;;21.36;49.82
55317;BME280;41178;48.956;8.130;2022-09-12T02:30:40;99732.91;;;21.51;49.64
55317;BME280;41178;48.956;8.130;2022-09-12T02:39:19;99733.47;;;21.41;49.90
55317;BME280;41178;48.956;8.130;2022-09-12T02:41:21;99753.28;;;21.23;49.95
55317;BME280;41178;48.956;8.130;2022-09-12T02:43:23;99747.09;;;21.04;50.83
55317;BME280;41178;48.956;8.130;2022-09-12T02:45:25;99723.41;;;21.18;50.61
55317;BME280;41178;48.956;8.130;2022-09-12T02:47:32;99714.31;;;21.43;50.02
55317;BME280;41178;48.956;8.130;2022-09-12T02:49:34;99745.56;;;21.08;50.45
55317;BME280;41178;48.956;8.130;2022-09-12T02:51:36;99749.19;;;21.02;50.70
55317;BME280;41178;48.956;8.130;2022-09-12T02:53:38;99749.22;;;20.65;51.25
55317;BME280;41178;48.956;8.130;2022-09-12T02:55:41;99709.16;;;21.11;50.56
55317;BME280;41178;48.956;8.130;2022-09-12T02:57:43;99737.78;;;21.00;50.85
55317;BME280;41178;48.956;8.130;2022-09-12T02:59:45;99737.50;;;21.20;49.95
55317;BME280;41178;48.956;8.130;2022-09-12T03:06:51;99750.25;;;21.01;50.38
55317;BME280;41178;48.956;8.130;2022-09-12T03:09:20;99757.78;;;20.99;50.31
55317;BME280;41178;48.956;8.130;2022-09-12T03:14:21;99752.50;;;20.86;50.70
55317;BME280;41178;48.956;8.130;2022-09-12T03:16:56;99732.88;;;21.09;49.90
55317;BME280;41178;48.956;8.130;2022-09-12T03:19:12;99719.19;;;21.64;49.04
55317;BME280;41178;48.956;8.130;2022-09-12T03:21:29;99760.16;;;21.49;49.04
55317;BME280;41178;48.956;8.130;2022-09-12T03:25:41;99752.50;;;21.65;49.00
55317;BME280;41178;48.956;8.130;2022-09-12T03:28:20;99756.63;;;21.37;49.56
55317;BME280;41178;48.956;8.130;2022-09-12T03:30:20;99736.06;;;22.14;47.96
55317;BME280;41178;48.956;8.130;2022-09-12T03:32:46;99732.63;;;22.18;48.14
55317;BME280;41178;48.956;8.130;2022-09-12T03:34:48;99751.47;;;22.49;46.89
55317;BME280;41178;48.956;8.130;2022-09-12T03:36:51;99772.09;;;22.26;47.49
55317;BME280;41178;48.956;8.130;2022-09-12T03:38:55;99759.38;;;22.38;47.50
55317;BME280;41178;48.956;8.130;2022-09-12T03:40:57;99743.56;;;22.47;47.40
55317;BME280;41178;48.956;8.130;2022-09-12T03:42:58;99781.84;;;22.27;47.47
55317;BME280;41178;48.956;8.130;2022-09-12T03:45:00;99819.41;;;21.39;49.04
55317;BME280;41178;48.956;8.130;2022-09-12T03:47:02;99780.78;;;21.92;48.31
55317;BME280;41178;48.956;8.130;2022-09-12T03:49:08;99820.00;;;21.11;49.45
55317;BME280;41178;48.956;8.130;2022-09-12T03:51:11;99793.16;;;21.58;48.75
55317;BME280;41178;48.956;8.130;2022-09-12T03:53:12;99754.75;;;22.15;47.80
55317;BME280;41178;48.956;8.130;2022-09-12T03:55:17;99781.81;;;21.80;48.42
55317;BME280;41178;48.956;8.130;2022-09-12T03:57:19;99809.84;;;21.25;49.18
55317;BME280;41178;48.956;8.130;2022-09-12T03:59:21;99800.88;;;21.43;48.83
55317;BME280;41178;48.956;8.130;2022-09-12T04:01:23;99807.31;;;21.11;49.38
55317;BME280;41178;48.956;8.130;2022-09-12T04:03:24;99779.19;;;21.01;50.03
55317;BME280;41178;48.956;8.130;2022-09-12T04:05:26;99752.09;;;21.61;48.95
55317;BME280;41178;48.956;8.130;2022-09-12T04:07:28;99752.66;;;21.94;48.24
55317;BME280;41178;48.956;8.130;2022-09-12T04:09:29;99780.41;;;21.77;47.97
55317;BME280;41178;48.956;8.130;2022-09-12T04:11:31;99813.97;;;20.90;49.36
55317;BME280;41178;48.956;8.130;2022-09-12T04:13:34;99757.50;;;21.61;48.56
55317;BME280;41178;48.956;8.130;2022-09-12T04:15:36;99795.13;;;21.21;49.16
55317;BME280;41178;48.956;8.130;2022-09-12T04:17:37;99725.34;;;22.19;47.35
55317;BME280;41178;48.956;8.130;2022-09-12T04:19:39;99757.72;;;21.90;47.78
55317;BME280;41178;48.956;8.130;2022-09-12T04:21:40;99772.63;;;21.81;47.44
55317;BME280;41178;48.956;8.130;2022-09-12T04:23:42;99748.41;;;22.21;47.14
55317;BME280;41178;48.956;8.130;2022-09-12T04:25:52;99768.97;;;21.63;48.55
55317;BME280;41178;48.956;8.130;2022-09-12T04:27:54;99802.63;;;21.49;47.97
55317;BME280;41178;48.956;8.130;2022-09-12T04:29:57;99753.00;;;21.97;47.41
55317;BME280;41178;48.956;8.130;2022-09-12T04:31:59;99789.25;;;21.54;47.87
55317;BME280;41178;48.956;8.130;2022-09-12T04:34:01;99752.53;;;22.00;47.29
55317;BME280;41178;48.956;8.130;2022-09-12T04:36:08;99784.69;;;21.54;48.09
55317;BME280;41178;48.956;8.130;2022-09-12T04:38:11;99805.53;;;21.35;47.89
55317;BME280;41178;48.956;8.130;2022-09-12T04:40:12;99798.13;;;21.31;47.96
55317;BME280;41178;48.956;8.130;2022-09-12T04:42:14;99779.81;;;21.75;47.25
55317;BME280;41178;48.956;8.130;2022-09-12T04:44:16;99805.84;;;21.27;47.73
55317;BME280;41178;48.956;8.130;2022-09-12T04:46:18;99810.47;;;21.08;48.31
55317;BME280;41178;48.956;8.130;2022-09-12T04:48:20;99846.09;;;20.11;49.83
55317;BME280;41178;48.956;8.130;2022-09-12T04:50:22;99829.66;;;20.13;50.17
55317;BME280;41178;48.956;8.130;2022-09-12T04:52:24;99832.72;;;19.98;50.43
55317;BME280;41178;48.956;8.130;2022-09-12T04:54:25;99821.06;;;19.97;50.60
55317;BME280;41178;48.956;8.130;2022-09-12T04:56:27;99807.13;;;20.25;49.87
55317;BME280;41178;48.956;8.130;2022-09-12T04:58:30;99770.66;;;20.78;48.91
55317;BME280;41178;48.956;8.130;2022-09-12T05:00:32;99802.91;;;20.36;49.92
55317;BME280;41178;48.956;8.130;2022-09-12T05:02:33;99780.25;;;20.37;50.15
55317;BME280;41178;48.956;8.130;2022-09-12T05:04:35;99785.75;;;20.68;49.38
55317;BME280;41178;48.956;8.130;2022-09-12T05:06:37;99815.66;;;19.97;50.44
55317;BME280;41178;48.956;8.130;2022-09-12T05:08:40;99783.19;;;20.36;49.90
55317;BME280;41178;48.956;8.130;2022-09-12T05:10:42;99811.66;;;19.81;50.90
55317;BME280;41178;48.956;8.130;2022-09-12T05:12:43;99784.34;;;20.21;50.32
55317;BME280;41178;48.956;8.130;2022-09-12T05:14:45;99800.59;;;19.90;51.02
55317;BME280;41178;48.956;8.130;2022-09-12T05:16:47;99774.44;;;19.58;52.49
55317;BME280;41178;48.956;8.130;2022-09-12T05:18:50;99779.28;;;19.81;51.74
55317;BME280;41178;48.956;8.130;2022-09-12T05:20:52;99764.34;;;20.29;50.59
55317;BME280;41178;48.956;8.130;2022-09-12T05:22:54;99736.75;;;21.01;49.46
55317;BME280;41178;48.956;8.130;2022-09-12T05:24:56;99743.84;;;21.14;49.32
55317;BME280;41178;48.956;8.130;2022-09-12T05:26:58;99753.00;;;20.94;49.51
55317;BME280;41178;48.956;8.130;2022-09-12T05:28:59;99735.31;;;21.29;49.02
55317;BME280;41178;48.956;8.130;2022-09-12T05:31:14;99789.63;;;20.90;49.47
55317;BME280;41178;48.956;8.130;2022-09-12T05:33:16;99770.03;;;21.13;49.24
55317;BME280;41178;48.956;8.130;2022-09-12T05:35:19;99734.09;;;21.55;48.71
55317;BME280;41178;48.956;8.130;2022-09-12T05:37:21;99773.72;;;21.19;49.17
55317;BME280;41178;48.956;8.130;2022-09-12T05:39:24;99761.78;;;21.69;48.20
55317;BME280;41178;48.956;8.130;2022-09-12T05:41:28;99758.63;;;21.84;48.13
55317;BME280;41178;48.956;8.130;2022-09-12T05:43:32;99768.91;;;21.94;47.73
55317;BME280;41178;48.956;8.130;2022-09-12T05:45:34;99763.25;;;21.95;47.68
55317;BME280;41178;48.956;8.130;2022-09-12T05:47:35;99749.09;;;22.17;47.66
55317;BME280;41178;48.956;8.130;2022-09-12T05:49:37;99773.38;;;22.12;47.61
55317;BME280;41178;48.956;8.130;2022-09-12T05:51:41;99814.16;;;21.75;48.02
55317;BME280;41178;48.956;8.130;2022-09-12T05:54:06;99766.22;;;22.29;47.43
55317;BME280;41178;48.956;8.130;2022-09-12T05:56:14;99764.66;;;22.45;47.14
55317;BME280;41178;48.956;8.130;2022-09-12T05:58:15;99775.75;;;22.32;47.44
55317;BME280;41178;48.956;8.130;2022-09-12T06:00:17;99786.00;;;22.30;47.29
55317;BME280;41178;48.956;8.130;2022-09-12T06:02:20;99785.84;;;22.24;47.57
55317;BME280;41178;48.956;8.130;2022-09-12T06:04:22;99800.31;;;22.06;48.12
55317;BME280;41178;48.956;8.130;2022-09-12T06:06:24;99797.56;;;21.83;48.63
55317;BME280;41178;48.956;8.130;2022-09-12T06:08:25;99797.09;;;21.74;49.08
55317;BME280;41178;48.956;8.130;2022-09-12T06:10:27;99768.47;;;22.32;47.90
55317;BME280;41178;48.956;8.130;2022-09-12T06:12:29;99805.50;;;21.96;48.47
55317;BME280;41178;48.956;8.130;2022-09-12T06:14:30;99812.41;;;21.50;49.52
55317;BME280;41178;48.956;8.130;2022-09-12T06:16:33;99849.75;;;21.11;49.97
55317;BME280;41178;48.956;8.130;2022-09-12T06:18:37;99786.19;;;21.92;48.68
55317;BME280;41178;48.956;8.130;2022-09-12T06:20:39;99807.94;;;21.86;48.37
55317;BME280;41178;48.956;8.130;2022-09-12T06:22:40;99779.75;;;22.17;48.26
55317;BME280;41178;48.956;8.130;2022-09-12T06:24:42;99795.84;;;22.00;48.86
55317;BME280;41178;48.956;8.130;2022-09-12T06:26:44;99780.31;;;21.96;49.14
55317;BME280;41178;48.956;8.130;2022-09-12T06:28:48;99820.75;;;21.79;49.14
55317;BME280;41178;48.956;8.130;2022-09-12T06:30:50;99738.69;;;22.32;49.13
55317;BME280;41178;48.956;8.130;2022-09-12T06:32:52;99706.38;;;22.95;47.50
55317;BME280;41178;48.956;8.130;2022-09-12T06:34:54;99726.28;;;22.89;47.75
55317;BME280;41178;48.956;8.130;2022-09-12T06:36:55;99741.38;;;22.84;47.72
55317;BME280;41178;48.956;8.130;2022-09-12T06:39:04;99727.16;;;23.06;47.66
55317;BME280;41178;48.956;8.130;2022-09-12T06:41:08;99808.22;;;22.08;49.13
55317;BME280;41178;48.956;8.130;2022-09-12T06:43:11;99735.22;;;22.89;48.00
55317;BME280;41178;48.956;8.130;2022-09-12T06:45:14;99766.34;;;22.46;48.44
55317;BME280;41178;48.956;8.130;2022-09-12T06:47:16;99810.44;;;21.99;49.67
55317;BME280;41178;48.956;8.130;2022-09-12T06:49:18;99724.94;;;23.32;47.02
55317;BME280;41178;48.956;8.130;2022-09-12T06:51:20;99757.88;;;22.95;47.97
55317;BME280;41178;48.956;8.130;2022-09-12T06:53:21;99719.72;;;23.59;46.68
55317;BME280;41178;48.956;8.130;2022-09-12T06:55:23;99761.41;;;23.24;47.33
55317;BME280;41178;48.956;8.130;2022-09-12T06:57:28;99732.72;;;23.74;46.55
55317;BME280;41178;48.956;8.130;2022-09-12T06:59:31;99782.63;;;23.27;47.23
55317;BME280;41178;48.956;8.130;2022-09-12T07:01:33;99738.41;;;23.89;46.23
55317;BME280;41178;48.956;8.130;2022-09-12T07:03:35;99799.28;;;23.48;46.60
55317;BME280;41178;48.956;8.130;2022-09-12T07:05:37;99769.06;;;23.56;47.10
55317;BME280;41178;48.956;8.130;2022-09-12T07:07:39;99768.09;;;23.62;47.19
55317;BME280;41178;48.956;8.130;2022-09-12T07:09:40;99794.47;;;23.09;48.07
55317;BME280;41178;48.956;8.130;2022-09-12T07:11:43;99770.50;;;23.18;48.23
55317;BME280;41178;48.956;8.130;2022-09-12T07:13:46;99835.91;;;22.69;48.53
55317;BME280;41178;48.956;8.130;2022-09-12T07:15:48;99787.66;;;23.07;48.05
55317;BME280;41178;48.956;8.130;2022-09-12T07:17:51;99749.59;;;23.59;47.50
55317;BME280;41178;48.956;8.130;2022-09-12T07:19:53;99770.81;;;23.33;47.51
55317;BME280;41178;48.956;8.130;2022-09-12T07:21:55;99755.63;;;23.49;47.60
55317;BME280;41178;48.956;8.130;2022-09-12T07:23:59;99778.34;;;23.31;47.64
55317;BME280;41178;48.956;8.130;2022-09-12T07:26:01;99724.16;;;23.82;46.97
55317;BME280;41178;48.956;8.130;2022-09-12T07:28:02;99747.19;;;23.80;47.07
55317;BME280;41178;48.956;8.130;2022-09-12T07:30:05;99820.03;;;22.73;49.02
55317;BME280;41178;48.956;8.130;2022-09-12T07:32:08;99743.59;;;23.57;47.77
55317;BME280;41178;48.956;8.130;2022-09-12T07:34:10;99734.38;;;23.75;47.10
55317;BME280;41178;48.956;8.130;2022-09-12T07:36:14;99758.88;;;23.63;47.46
55317;BME280;41178;48.956;8.130;2022-09-12T07:38:16;99729.25;;;23.95;47.11
55317;BME280;41178;48.956;8.130;2022-09-12T07:40:18;99798.84;;;23.39;48.16
55317;BME280;41178;48.956;8.130;2022-09-12T07:42:19;99783.53;;;23.33;48.69
55317;BME280;41178;48.956;8.130;2022-09-12T07:44:21;99826.38;;;22.78;49.11
55317;BME280;41178;48.956;8.130;2022-09-12T07:46:23;99791.28;;;23.41;47.92
55317;BME280;41178;48.956;8.130;2022-09-12T07:48:26;99838.38;;;22.71;49.03
55317;BME280;41178;48.956;8.130;2022-09-12T07:50:28;99724.16;;;23.82;47.73
55317;BME280;41178;48.956;8.130;2022-09-12T07:52:30;99743.25;;;23.70;47.84
55317;BME280;41178;48.956;8.130;2022-09-12T07:54:31;99749.50;;;23.88;47.17
55317;BME280;41178;48.956;8.130;2022-09-12T07:56:33;99765.47;;;23.84;47.25
55317;BME280;41178;48.956;8.130;2022-09-12T07:58:40;99782.16;;;23.59;47.74
55317;BME280;41178;48.956;8.130;2022-09-12T08:00:42;99771.00;;;23.89;47.08
55317;BME280;41178;48.956;8.130;2022-09-12T08:02:52;99721.91;;;24.30;47.29
55317;BME280;41178;48.956;8.130;2022-09-12T08:04:54;99797.72;;;23.64;48.02
55317;BME280;41178;48.956;8.130;2022-09-12T08:06:56;99785.81;;;23.24;48.85
55317;BME280;41178;48.956;8.130;2022-09-12T08:08:58;99735.34;;;24.03;47.50
55317;BME280;41178;48.956;8.130;2022-09-12T08:11:01;99782.81;;;23.66;47.87
55317;BME280;41178;48.956;8.130;2022-09-12T08:13:06;99824.03;;;22.58;49.74
55317;BME280;41178;48.956;8.130;2022-09-12T08:15:11;99766.78;;;23.65;48.15
55317;BME280;41178;48.956;8.130;2022-09-12T08:17:12;99718.75;;;24.60;46.08
55317;BME280;41178;48.956;8.130;2022-09-12T08:19:14;99745.25;;;24.31;46.57
55317;BME280;41178;48.956;8.130;2022-09-12T08:21:19;99724.72;;;24.79;46.42
55317;BME280;41178;48.956;8.130;2022-09-12T08:23:20;99782.81;;;23.83;47.96
55317;BME280;41178;48.956;8.130;2022-09-12T08:25:23;99783.16;;;24.21;47.03
55317;BME280;41178;48.956;8.130;2022-09-12T08:27:26;99757.25;;;24.52;47.06
55317;BME280;41178;48.956;8.130;2022-09-12T08:29:27;99712.34;;;25.16;45.65
55317;BME280;41178;48.956;8.130;2022-09-12T08:31:30;99815.16;;;23.85;47.58
55317;BME280;41178;48.956;8.130;2022-09-12T08:33:37;99804.47;;;23.95;47.25
55317;BME280;41178;48.956;8.130;2022-09-12T08:35:38;99751.06;;;24.57;46.64
55317;BME280;41178;48.956;8.130;2022-09-12T08:37:40;99778.31;;;24.23;47.42
55317;BME280;41178;48.956;8.130;2022-09-12T08:39:41;99763.44;;;24.47;47.03
55317;BME280;41178;48.956;8.130;2022-09-12T08:41:46;99796.06;;;24.30;46.82
55317;BME280;41178;48.956;8.130;2022-09-12T08:46:21;99784.59;;;24.45;46.83
55317;BME280;41178;48.956;8.130;2022-09-12T08:48:24;99744.75;;;24.95;45.73
55317;BME280;41178;48.956;8.130;2022-09-12T08:50:26;99731.72;;;25.24;45.70
55317;BME280;41178;48.956;8.130;2022-09-12T08:54:42;99795.94;;;24.59;47.10
55317;BME280;41178;48.956;8.130;2022-09-12T08:56:46;99762.44;;;24.76;46.50
55317;BME280;41178;48.956;8.130;2022-09-12T08:58:48;99755.53;;;24.68;47.08
55317;BME280;41178;48.956;8.130;2022-09-12T09:07:56;99708.03;;;25.85;44.51
55317;BME280;41178;48.956;8.130;2022-09-12T09:15:00;99757.13;;;25.63;44.91
55317;BME280;41178;48.956;8.130;2022-09-12T09:17:08;99780.81;;;25.35;45.26
55317;BME280;41178;48.956;8.130;2022-09-12T09:19:30;99747.06;;;25.63;44.52
55317;BME280;41178;48.956;8.130;2022-09-12T09:21:46;99736.91;;;26.28;43.20
55317;BME280;41178;48.956;8.130;2022-09-12T09:24:07;99708.13;;;26.48;43.13
55317;BME280;41178;48.956;8.130;2022-09-12T09:26:22;99724.91;;;26.82;43.17
55317;BME280;41178;48.956;8.130;2022-09-12T09:28:52;99758.41;;;26.20;44.39
55317;BME280;41178;48.956;8.130;2022-09-12T09:30:55;99788.00;;;25.73;45.25
55317;BME280;41178;48.956;8.130;2022-09-12T09:32:59;99738.34;;;26.36;44.19
55317;BME280;41178;48.956;8.130;2022-09-12T09:37:25;99739.66;;;26.86;43.84
55317;BME280;41178;48.956;8.130;2022-09-12T09:42:14;99749.13;;;26.68;44.26
55317;BME280;41178;48.956;8.130;2022-09-12T09:44:18;99711.13;;;27.35;43.22
55317;BME280;41178;48.956;8.130;2022-09-12T09:46:19;99719.31;;;27.30;43.34
55317;BME280;41178;48.956;8.130;2022-09-12T09:48:33;99800.75;;;25.95;44.81
55317;BME280;41178;48.956;8.130;2022-09-12T09:50:37;99756.47;;;26.58;43.93
55317;BME280;41178;48.956;8.130;2022-09-12T09:52:39;99728.25;;;27.00;43.30
55317;BME280;41178;48.956;8.130;2022-09-12T09:54:45;99713.88;;;27.40;42.99
55317;BME280;41178;48.956;8.130;2022-09-12T09:56:50;99753.63;;;27.05;44.19
55317;BME280;41178;48.956;8.130;2022-09-12T09:58:51;99779.88;;;26.53;44.85
55317;BME280;41178;48.956;8.130;2022-09-12T10:00:58;99766.13;;;26.38;45.12
55317;BME280;41178;48.956;8.130;2022-09-12T10:05:15;99750.19;;;26.57;43.45
55317;BME280;41178;48.956;8.130;2022-09-12T10:07:18;99741.78;;;26.69;43.74
55317;BME280;41178;48.956;8.130;2022-09-12T10:09:32;99699.94;;;27.26;43.20
55317;BME280;41178;48.956;8.130;2022-09-12T10:11:35;99765.03;;;26.34;44.03
55317;BME280;41178;48.956;8.130;2022-09-12T10:15:57;99720.38;;;27.08;42.70
55317;BME280;41178;48.956;8.130;2022-09-12T10:17:59;99730.09;;;26.89;42.90
55317;BME280;41178;48.956;8.130;2022-09-12T10:20:02;99666.56;;;28.02;41.31
55317;BME280;41178;48.956;8.130;2022-09-12T10:22:25;99752.31;;;27.08;42.44
55317;BME280;41178;48.956;8.130;2022-09-12T10:24:38;99760.91;;;26.74;43.11
55317;BME280;41178;48.956;8.130;2022-09-12T10:26:46;99758.72;;;26.76;41.84
55317;BME280;41178;48.956;8.130;2022-09-12T10:28:54;99744.59;;;26.95;41.67
55317;BME280;41178;48.956;8.130;2022-09-12T10:30:56;99688.47;;;27.71;41.83
55317;BME280;41178;48.956;8.130;2022-09-12T10:33:06;99747.94;;;27.07;42.32
55317;BME280;41178;48.956;8.130;2022-09-12T10:37:33;99725.03;;;27.18;42.06
55317;BME280;41178;48.956;8.130;2022-09-12T10:39:36;99725.53;;;27.05;42.64
55317;BME280;41178;48.956;8.130;2022-09-12T10:41:39;99742.88;;;26.68;42.19
55317;BME280;41178;48.956;8.130;2022-09-12T10:43:42;99680.28;;;27.71;41.69
55317;BME280;41178;48.956;8.130;2022-09-12T10:45:44;99682.47;;;27.84;42.01
55317;BME280;41178;48.956;8.130;2022-09-12T10:47:47;99681.63;;;27.94;41.32
55317;BME280;41178;48.956;8.130;2022-09-12T10:49:49;99655.69;;;28.62;40.95
55317;BME280;41178;48.956;8.130;2022-09-12T10:51:52;99703.72;;;28.03;41.42
55317;BME280;41178;48.956;8.130;2022-09-12T10:53:56;99670.09;;;28.23;41.70
55317;BME280;41178;48.956;8.130;2022-09-12T10:56:13;99736.78;;;27.24;42.18
55317;BME280;41178;48.956;8.130;2022-09-12T11:05:56;99671.94;;;26.58;42.64
55317;BME280;41178;48.956;8.130;2022-09-12T11:15:30;99648.00;;;27.88;41.75
55317;BME280;41178;48.956;8.130;2022-09-12T11:34:08;99677.00;;;27.58;41.38
55317;BME280;41178;48.956;8.130;2022-09-12T11:36:22;99686.56;;;27.25;41.90
55317;BME280;41178;48.956;8.130;2022-09-12T11:41:01;99634.25;;;28.29;40.33
55317;BME280;41178;48.956;8.130;2022-09-12T11:43:11;99635.22;;;28.99;38.56
55317;BME280;41178;48.956;8.130;2022-09-12T11:45:29;99667.44;;;27.56;41.26
55317;BME280;41178;48.956;8.130;2022-09-12T11:47:35;99648.59;;;27.65;41.70
55317;BME280;41178;48.956;8.130;2022-09-12T11:49:42;99640.38;;;27.59;40.20
55317;BME280;41178;48.956;8.130;2022-09-12T11:54:11;99690.00;;;26.79;40.82
55317;BME280;41178;48.956;8.130;2022-09-12T11:56:17;99641.19;;;27.86;40.49
55317;BME280;41178;48.956;8.130;2022-09-12T11:58:22;99667.47;;;27.61;39.41
55317;BME280;41178;48.956;8.130;2022-09-12T12:00:46;99640.31;;;28.06;39.23
55317;BME280;41178;48.956;8.130;2022-09-12T12:03:05;99682.19;;;27.65;37.41
55317;BME280;41178;48.956;8.130;2022-09-12T12:05:33;99698.41;;;26.14;38.27
55317;BME280;41178;48.956;8.130;2022-09-12T12:07:42;99633.28;;;27.53;37.49
55317;BME280;41178;48.956;8.130;2022-09-12T12:09:51;99652.97;;;27.60;38.10
55317;BME280;41178;48.956;8.130;2022-09-12T12:11:55;99649.09;;;27.92;38.04
55317;BME280;41178;48.956;8.130;2022-09-12T12:14:04;99646.16;;;27.12;38.47
55317;BME280;41178;48.956;8.130;2022-09-12T12:16:14;99661.09;;;26.99;38.19
55317;BME280;41178;48.956;8.130;2022-09-12T12:18:24;99639.88;;;27.42;38.06
55317;BME280;41178;48.956;8.130;2022-09-12T12:20:26;99631.06;;;26.78;39.38
55317;BME280;41178;48.956;8.130;2022-09-12T12:22:29;99623.44;;;27.01;38.06
55317;BME280;41178;48.956;8.130;2022-09-12T12:24:31;99604.09;;;27.59;37.49
55317;BME280;41178;48.956;8.130;2022-09-12T12:26:55;99597.91;;;28.13;37.95
55317;BME280;41178;48.956;8.130;2022-09-12T12:28:58;99616.53;;;28.71;36.94
55317;BME280;41178;48.956;8.130;2022-09-12T12:31:01;99613.13;;;28.90;36.91
55317;BME280;41178;48.956;8.130;2022-09-12T12:35:43;99668.25;;;27.25;37.76
55317;BME280;41178;48.956;8.130;2022-09-12T12:37:51;99645.34;;;27.62;37.23
55317;BME280;41178;48.956;8.130;2022-09-12T12:42:02;99647.41;;;28.07;36.88
55317;BME280;41178;48.956;8.130;2022-09-12T12:47:24;99600.94;;;28.12;36.70
55317;BME280;41178;48.956;8.130;2022-09-12T12:49:27;99644.78;;;27.09;37.22
55317;BME280;41178;48.956;8.130;2022-09-12T12:51:54;99604.13;;;27.23;37.75
55317;BME280;41178;48.956;8.130;2022-09-12T12:53:58;99639.53;;;26.77;37.98
55317;BME280;41178;48.956;8.130;2022-09-12T12:55:59;99603.25;;;27.48;37.21
55317;BME280;41178;48.956;8.130;2022-09-12T12:58:06;99571.72;;;29.02;36.39
55317;BME280;41178;48.956;8.130;2022-09-12T13:02:27;99596.69;;;28.45;36.70